sensor_id;sensor_type;location;lat;lon;timestamp;temperature;humidity
26051;DHT22;13825;53.496;10.020;2023-04-16T00:06:44;7.80;99.90
26051;DHT22;13825;53.496;10.020;2023-04-16T00:09:21;7.70;99.90
26051;DHT22;13825;53.496;10.020;2023-04-16T00:11:54;7.70;99.90
26051;DHT22;13825;53.496;10.020;2023-04-16T00:14:35;7.60;99.90
26051;DHT22;13825;53.496;10.020;2023-04-16T00:17:12;7.60;99.90
26051;DHT22;13825;53.496;10.020;2023-04-16T00:19:46;7.50;99.90
26051;DHT22;13825;53.496;10.020;2023-04-16T00:22:37;7.50;99.90
26051;DHT22;13825;53.496;10.020;2023-04-16T00:25:09;7.40;99.90
26051;DHT22;13825;53.496;10.020;2023-04-16T00:27:37;7.40;99.90
26051;DHT22;13825;53.496;10.020;2023-04-16T00:30:36;7.40;99.90
26051;DHT22;13825;53.496;10.020;2023-04-16T00:33:06;7.40;99.90
26051;DHT22;13825;53.496;10.020;2023-04-16T00:35:37;7.30;99.90
26051;DHT22;13825;53.496;10.020;2023-04-16T00:38:10;7.30;99.90
26051;DHT22;13825;53.496;10.020;2023-04-16T00:40:41;7.20;99.90
26051;DHT22;13825;53.496;10.020;2023-04-16T00:43:08;7.10;99.90
26051;DHT22;13825;53.496;10.020;2023-04-16T00:45:38;7.10;99.90
26051;DHT22;13825;53.496;10.020;2023-04-16T00:48:09;7.30;99.90
26051;DHT22;13825;53.496;10.020;2023-04-16T00:50:41;7.00;99.90
26051;DHT22;13825;53.496;10.020;2023-04-16T00:53:13;7.00;99.90
26051;DHT22;13825;53.496;10.020;2023-04-16T00:55:41;7.10;99.90
26051;DHT22;13825;53.496;10.020;2023-04-16T00:58:10;7.00;99.90
26051;DHT22;13825;53.496;10.020;2023-04-16T01:00:44;7.00;99.90
26051;DHT22;13825;53.496;10.020;2023-04-16T01:03:14;7.00;99.90
26051;DHT22;13825;53.496;10.020;2023-04-16T01:05:44;6.90;99.90
26051;DHT22;13825;53.496;10.020;2023-04-16T01:08:24;7.00;99.90
26051;DHT22;13825;53.496;10.020;2023-04-16T01:10:52;6.90;99.90
26051;DHT22;13825;53.496;10.020;2023-04-16T01:13:21;6.90;99.90
26051;DHT22;13825;53.496;10.020;2023-04-16T01:15:53;7.00;99.90
26051;DHT22;13825;53.496;10.020;2023-04-16T01:18:21;7.00;99.90
26051;DHT22;13825;53.496;10.020;2023-04-16T01:20:50;7.00;99.90
26051;DHT22;13825;53.496;10.020;2023-04-16T01:23:18;7.00;99.90
26051;DHT22;13825;53.496;10.020;2023-04-16T01:25:45;7.00;99.90
26051;DHT22;13825;53.496;10.020;2023-04-16T01:28:13;6.90;99.90
26051;DHT22;13825;53.496;10.020;2023-04-16T01:30:42;7.00;99.90
26051;DHT22;13825;53.496;10.020;2023-04-16T01:33:11;7.10;99.90
26051;DHT22;13825;53.496;10.020;2023-04-16T01:35:39;7.10;99.90
26051;DHT22;13825;53.496;10.020;2023-04-16T01:38:11;7.10;99.90
26051;DHT22;13825;53.496;10.020;2023-04-16T01:40:39;7.10;99.90
26051;DHT22;13825;53.496;10.020;2023-04-16T01:43:12;7.20;99.90
26051;DHT22;13825;53.496;10.020;2023-04-16T01:45:42;7.20;99.90
26051;DHT22;13825;53.496;10.020;2023-04-16T01:48:18;7.10;99.90
26051;DHT22;13825;53.496;10.020;2023-04-16T01:50:46;7.30;99.90
26051;DHT22;13825;53.496;10.020;2023-04-16T01:53:17;7.10;99.90
26051;DHT22;13825;53.496;10.020;2023-04-16T01:55:48;7.20;99.90
26051;DHT22;13825;53.496;10.020;2023-04-16T01:58:18;7.10;99.90
26051;DHT22;13825;53.496;10.020;2023-04-16T02:00:52;7.20;99.90
26051;DHT22;13825;53.496;10.020;2023-04-16T02:03:20;7.20;99.90
26051;DHT22;13825;53.496;10.020;2023-04-16T02:05:51;7.40;99.90
26051;DHT22;13825;53.496;10.020;2023-04-16T02:08:20;7.40;99.90
26051;DHT22;13825;53.496;10.020;2023-04-16T02:10:51;7.40;99.90
26051;DHT22;13825;53.496;10.020;2023-04-16T02:13:24;7.40;99.90
26051;DHT22;13825;53.496;10.020;2023-04-16T02:15:52;7.40;99.90
26051;DHT22;13825;53.496;10.020;2023-04-16T02:18:19;7.40;99.90
26051;DHT22;13825;53.496;10.020;2023-04-16T02:20:47;7.40;99.90
26051;DHT22;13825;53.496;10.020;2023-04-16T02:23:21;7.40;99.90
26051;DHT22;13825;53.496;10.020;2023-04-16T02:25:55;7.50;99.90
26051;DHT22;13825;53.496;10.020;2023-04-16T02:28:25;7.40;99.90
26051;DHT22;13825;53.496;10.020;2023-04-16T02:30:53;7.40;99.90
26051;DHT22;13825;53.496;10.020;2023-04-16T02:33:30;7.40;99.90
26051;DHT22;13825;53.496;10.020;2023-04-16T02:36:14;7.60;99.90
26051;DHT22;13825;53.496;10.020;2023-04-16T02:38:43;7.60;99.90
26051;DHT22;13825;53.496;10.020;2023-04-16T02:41:11;7.60;99.90
26051;DHT22;13825;53.496;10.020;2023-04-16T02:43:47;7.60;99.90
26051;DHT22;13825;53.496;10.020;2023-04-16T02:46:14;7.60;99.90
26051;DHT22;13825;53.496;10.020;2023-04-16T02:48:42;7.50;99.90
26051;DHT22;13825;53.496;10.020;2023-04-16T02:51:09;7.50;99.90
26051;DHT22;13825;53.496;10.020;2023-04-16T02:53:39;7.50;99.90
26051;DHT22;13825;53.496;10.020;2023-04-16T02:56:12;7.50;99.90
26051;DHT22;13825;53.496;10.020;2023-04-16T02:58:40;7.50;99.90
26051;DHT22;13825;53.496;10.020;2023-04-16T03:01:11;7.50;99.90
26051;DHT22;13825;53.496;10.020;2023-04-16T03:03:50;7.50;99.90
26051;DHT22;13825;53.496;10.020;2023-04-16T03:06:28;7.60;99.90
26051;DHT22;13825;53.496;10.020;2023-04-16T03:08:58;7.60;99.90
26051;DHT22;13825;53.496;10.020;2023-04-16T03:11:43;7.60;99.90
26051;DHT22;13825;53.496;10.020;2023-04-16T03:14:13;7.60;99.90
26051;DHT22;13825;53.496;10.020;2023-04-16T03:16:40;7.70;99.90
26051;DHT22;13825;53.496;10.020;2023-04-16T03:19:10;7.60;99.90
26051;DHT22;13825;53.496;10.020;2023-04-16T03:21:37;7.70;99.90
26051;DHT22;13825;53.496;10.020;2023-04-16T03:24:09;7.70;99.90
26051;DHT22;13825;53.496;10.020;2023-04-16T03:26:43;7.80;99.90
26051;DHT22;13825;53.496;10.020;2023-04-16T03:29:17;7.80;99.90
26051;DHT22;13825;53.496;10.020;2023-04-16T03:31:58;7.80;99.90
26051;DHT22;13825;53.496;10.020;2023-04-16T03:37:51;7.90;99.90
26051;DHT22;13825;53.496;10.020;2023-04-16T03:40:18;7.80;99.90
26051;DHT22;13825;53.496;10.020;2023-04-16T03:42:49;7.90;99.90
26051;DHT22;13825;53.496;10.020;2023-04-16T03:45:21;8.00;99.90
26051;DHT22;13825;53.496;10.020;2023-04-16T03:47:51;8.00;99.90
26051;DHT22;13825;53.496;10.020;2023-04-16T03:50:19;7.90;99.90
26051;DHT22;13825;53.496;10.020;2023-04-16T03:52:46;7.90;99.90
26051;DHT22;13825;53.496;10.020;2023-04-16T03:55:19;7.90;99.90
26051;DHT22;13825;53.496;10.020;2023-04-16T03:57:54;7.80;99.90
26051;DHT22;13825;53.496;10.020;2023-04-16T04:00:33;7.90;99.90
26051;DHT22;13825;53.496;10.020;2023-04-16T04:03:01;7.90;99.90
26051;DHT22;13825;53.496;10.020;2023-04-16T04:05:28;8.00;99.90
26051;DHT22;13825;53.496;10.020;2023-04-16T04:07:58;8.00;99.90
26051;DHT22;13825;53.496;10.020;2023-04-16T04:10:25;8.10;99.90
26051;DHT22;13825;53.496;10.020;2023-04-16T04:12:54;8.00;99.90
26051;DHT22;13825;53.496;10.020;2023-04-16T04:15:26;8.00;99.90
26051;DHT22;13825;53.496;10.020;2023-04-16T04:17:56;7.90;99.90
26051;DHT22;13825;53.496;10.020;2023-04-16T04:20:27;7.90;99.90
26051;DHT22;13825;53.496;10.020;2023-04-16T04:22:54;7.90;99.90
26051;DHT22;13825;53.496;10.020;2023-04-16T04:25:31;8.10;99.90
26051;DHT22;13825;53.496;10.020;2023-04-16T04:28:01;8.10;99.90
26051;DHT22;13825;53.496;10.020;2023-04-16T04:30:28;8.10;99.90
26051;DHT22;13825;53.496;10.020;2023-04-16T04:33:03;8.10;99.90
26051;DHT22;13825;53.496;10.020;2023-04-16T04:35:33;8.10;99.90
26051;DHT22;13825;53.496;10.020;2023-04-16T04:38:04;8.10;99.90
26051;DHT22;13825;53.496;10.020;2023-04-16T04:40:33;8.10;99.90
26051;DHT22;13825;53.496;10.020;2023-04-16T04:43:04;8.00;99.90
26051;DHT22;13825;53.496;10.020;2023-04-16T04:45:35;8.10;99.90
26051;DHT22;13825;53.496;10.020;2023-04-16T04:48:03;8.00;99.90
26051;DHT22;13825;53.496;10.020;2023-04-16T04:50:30;8.00;99.90
26051;DHT22;13825;53.496;10.020;2023-04-16T04:52:57;8.10;99.90
26051;DHT22;13825;53.496;10.020;2023-04-16T04:55:24;8.00;99.90
26051;DHT22;13825;53.496;10.020;2023-04-16T04:57:57;8.10;99.90
26051;DHT22;13825;53.496;10.020;2023-04-16T05:00:26;8.20;99.90
26051;DHT22;13825;53.496;10.020;2023-04-16T05:02:54;8.20;99.90
26051;DHT22;13825;53.496;10.020;2023-04-16T05:05:21;8.20;99.90
26051;DHT22;13825;53.496;10.020;2023-04-16T05:07:50;8.20;99.90
26051;DHT22;13825;53.496;10.020;2023-04-16T05:10:17;8.30;99.90
26051;DHT22;13825;53.496;10.020;2023-04-16T05:12:46;8.30;99.90
26051;DHT22;13825;53.496;10.020;2023-04-16T05:15:31;8.20;99.90
26051;DHT22;13825;53.496;10.020;2023-04-16T05:17:59;8.20;99.90
26051;DHT22;13825;53.496;10.020;2023-04-16T05:20:27;8.20;99.90
26051;DHT22;13825;53.496;10.020;2023-04-16T05:22:54;8.30;99.90
26051;DHT22;13825;53.496;10.020;2023-04-16T05:25:26;8.40;99.90
26051;DHT22;13825;53.496;10.020;2023-04-16T05:27:56;8.30;99.90
26051;DHT22;13825;53.496;10.020;2023-04-16T05:30:24;8.40;99.90
26051;DHT22;13825;53.496;10.020;2023-04-16T05:32:52;8.50;99.90
26051;DHT22;13825;53.496;10.020;2023-04-16T05:35:20;8.50;99.90
26051;DHT22;13825;53.496;10.020;2023-04-16T05:37:47;8.50;99.90
26051;DHT22;13825;53.496;10.020;2023-04-16T05:40:14;8.50;99.90
26051;DHT22;13825;53.496;10.020;2023-04-16T05:42:41;8.50;99.90
26051;DHT22;13825;53.496;10.020;2023-04-16T05:45:09;8.50;99.90
26051;DHT22;13825;53.496;10.020;2023-04-16T05:47:38;8.60;99.90
26051;DHT22;13825;53.496;10.020;2023-04-16T05:50:07;8.70;99.90
26051;DHT22;13825;53.496;10.020;2023-04-16T05:52:35;8.70;99.90
26051;DHT22;13825;53.496;10.020;2023-04-16T05:55:05;8.70;99.90
26051;DHT22;13825;53.496;10.020;2023-04-16T05:57:35;8.70;99.90
26051;DHT22;13825;53.496;10.020;2023-04-16T06:00:02;8.70;99.90
26051;DHT22;13825;53.496;10.020;2023-04-16T06:02:29;8.70;99.90
26051;DHT22;13825;53.496;10.020;2023-04-16T06:04:59;8.90;99.90
26051;DHT22;13825;53.496;10.020;2023-04-16T06:07:29;8.90;99.90
26051;DHT22;13825;53.496;10.020;2023-04-16T06:09:58;8.80;99.90
26051;DHT22;13825;53.496;10.020;2023-04-16T06:12:27;8.80;99.90
26051;DHT22;13825;53.496;10.020;2023-04-16T06:14:55;8.80;99.90
26051;DHT22;13825;53.496;10.020;2023-04-16T06:17:26;8.80;99.90
26051;DHT22;13825;53.496;10.020;2023-04-16T06:19:59;8.80;99.90
26051;DHT22;13825;53.496;10.020;2023-04-16T06:22:28;8.90;99.90
26051;DHT22;13825;53.496;10.020;2023-04-16T06:24:55;8.90;99.90
26051;DHT22;13825;53.496;10.020;2023-04-16T06:27:27;9.00;99.90
26051;DHT22;13825;53.496;10.020;2023-04-16T06:29:58;9.00;99.90
26051;DHT22;13825;53.496;10.020;2023-04-16T06:32:25;9.10;99.90
26051;DHT22;13825;53.496;10.020;2023-04-16T06:34:52;9.10;99.90
26051;DHT22;13825;53.496;10.020;2023-04-16T06:37:21;9.10;99.90
26051;DHT22;13825;53.496;10.020;2023-04-16T06:39:49;9.20;99.90
26051;DHT22;13825;53.496;10.020;2023-04-16T06:42:16;9.20;99.90
26051;DHT22;13825;53.496;10.020;2023-04-16T06:44:43;9.20;99.90
26051;DHT22;13825;53.496;10.020;2023-04-16T06:47:12;9.10;99.90
26051;DHT22;13825;53.496;10.020;2023-04-16T06:49:39;9.00;99.90
26051;DHT22;13825;53.496;10.020;2023-04-16T06:52:06;9.20;99.90
26051;DHT22;13825;53.496;10.020;2023-04-16T06:54:33;9.30;99.90
26051;DHT22;13825;53.496;10.020;2023-04-16T06:57:02;9.30;99.90
26051;DHT22;13825;53.496;10.020;2023-04-16T06:59:34;9.20;99.90
26051;DHT22;13825;53.496;10.020;2023-04-16T07:02:04;9.20;99.90
26051;DHT22;13825;53.496;10.020;2023-04-16T07:04:37;9.30;99.90
26051;DHT22;13825;53.496;10.020;2023-04-16T07:07:11;9.30;99.90
26051;DHT22;13825;53.496;10.020;2023-04-16T07:09:39;9.30;99.90
26051;DHT22;13825;53.496;10.020;2023-04-16T07:12:08;9.40;99.90
26051;DHT22;13825;53.496;10.020;2023-04-16T07:14:36;9.40;99.90
26051;DHT22;13825;53.496;10.020;2023-04-16T07:17:06;9.50;99.90
26051;DHT22;13825;53.496;10.020;2023-04-16T07:19:35;9.30;99.90
26051;DHT22;13825;53.496;10.020;2023-04-16T07:22:03;9.50;99.90
26051;DHT22;13825;53.496;10.020;2023-04-16T07:24:36;9.40;99.90
26051;DHT22;13825;53.496;10.020;2023-04-16T07:27:05;9.60;99.90
26051;DHT22;13825;53.496;10.020;2023-04-16T07:29:37;9.70;99.90
26051;DHT22;13825;53.496;10.020;2023-04-16T07:32:07;9.70;99.90
26051;DHT22;13825;53.496;10.020;2023-04-16T07:34:39;9.90;99.90
26051;DHT22;13825;53.496;10.020;2023-04-16T07:37:48;9.90;99.90
26051;DHT22;13825;53.496;10.020;2023-04-16T15:48:31;11.60;99.90
26051;DHT22;13825;53.496;10.020;2023-04-16T15:50:58;11.60;99.90
26051;DHT22;13825;53.496;10.020;2023-04-16T15:53:28;11.50;99.90
26051;DHT22;13825;53.496;10.020;2023-04-16T15:55:58;11.50;99.90
26051;DHT22;13825;53.496;10.020;2023-04-16T15:58:26;11.30;99.90
26051;DHT22;13825;53.496;10.020;2023-04-16T16:04:46;11.40;99.90
26051;DHT22;13825;53.496;10.020;2023-04-16T17:25:26;10.80;99.90
26051;DHT22;13825;53.496;10.020;2023-04-16T20:39:44;8.70;99.90
